sensor_id;sensor_type;location;lat;lon;timestamp;P1;durP1;ratioP1;P2;durP2;ratioP2
37843;SDS011;23930;57.632;18.292;2022-09-12T00:01:36;5.40;;;2.53;;
37843;SDS011;23930;57.632;18.292;2022-09-12T00:04:04;3.03;;;2.72;;
37843;SDS011;23930;57.632;18.292;2022-09-12T00:06:32;3.30;;;2.20;;
37843;SDS011;23930;57.632;18.292;2022-09-12T00:09:01;4.70;;;3.00;;
37843;SDS011;23930;57.632;18.292;2022-09-12T00:11:36;3.45;;;2.85;;
37843;SDS011;23930;57.632;18.292;2022-09-12T00:14:05;3.97;;;2.72;;
37843;SDS011;23930;57.632;18.292;2022-09-12T00:16:34;4.03;;;3.10;;
37843;SDS011;23930;57.632;18.292;2022-09-12T00:19:03;6.32;;;2.58;;
37843;SDS011;23930;57.632;18.292;2022-09-12T00:21:33;2.70;;;2.50;;
37843;SDS011;23930;57.632;18.292;2022-09-12T00:24:01;5.50;;;2.60;;
37843;SDS011;23930;57.632;18.292;2022-09-12T00:26:28;5.28;;;2.63;;
37843;SDS011;23930;57.632;18.292;2022-09-12T00:28:56;7.75;;;3.47;;
37843;SDS011;23930;57.632;18.292;2022-09-12T00:31:23;3.33;;;2.70;;
37843;SDS011;23930;57.632;18.292;2022-09-12T00:33:53;4.70;;;3.42;;
37843;SDS011;23930;57.632;18.292;2022-09-12T00:38:50;4.38;;;2.42;;
37843;SDS011;23930;57.632;18.292;2022-09-12T00:43:55;4.00;;;3.08;;
37843;SDS011;23930;57.632;18.292;2022-09-12T00:46:26;3.28;;;2.60;;
37843;SDS011;23930;57.632;18.292;2022-09-12T00:49:32;3.00;;;2.80;;
37843;SDS011;23930;57.632;18.292;2022-09-12T00:51:57;3.95;;;2.95;;
37843;SDS011;23930;57.632;18.292;2022-09-12T00:54:37;2.95;;;2.65;;
37843;SDS011;23930;57.632;18.292;2022-09-12T00:57:07;6.57;;;3.58;;
37843;SDS011;23930;57.632;18.292;2022-09-12T00:59:37;2.50;;;2.30;;
37843;SDS011;23930;57.632;18.292;2022-09-12T01:02:08;3.85;;;3.17;;
37843;SDS011;23930;57.632;18.292;2022-09-12T01:04:37;3.90;;;3.03;;
37843;SDS011;23930;57.632;18.292;2022-09-12T01:07:06;4.72;;;2.88;;
37843;SDS011;23930;57.632;18.292;2022-09-12T01:09:33;3.10;;;2.80;;
37843;SDS011;23930;57.632;18.292;2022-09-12T01:12:02;3.63;;;2.40;;
37843;SDS011;23930;57.632;18.292;2022-09-12T01:14:29;5.60;;;2.33;;
37843;SDS011;23930;57.632;18.292;2022-09-12T01:16:57;7.72;;;2.75;;
37843;SDS011;23930;57.632;18.292;2022-09-12T01:31:04;5.25;;;2.85;;
37843;SDS011;23930;57.632;18.292;2022-09-12T01:39:05;6.95;;;3.85;;
37843;SDS011;23930;57.632;18.292;2022-09-12T01:50:00;6.13;;;3.08;;
37843;SDS011;23930;57.632;18.292;2022-09-12T01:52:36;4.82;;;2.88;;
37843;SDS011;23930;57.632;18.292;2022-09-12T01:55:21;4.47;;;3.20;;
37843;SDS011;23930;57.632;18.292;2022-09-12T01:57:56;4.95;;;2.67;;
37843;SDS011;23930;57.632;18.292;2022-09-12T02:00:33;5.57;;;2.55;;
37843;SDS011;23930;57.632;18.292;2022-09-12T02:03:08;3.10;;;2.90;;
37843;SDS011;23930;57.632;18.292;2022-09-12T02:05:41;3.45;;;2.75;;
37843;SDS011;23930;57.632;18.292;2022-09-12T02:08:16;5.43;;;2.70;;
37843;SDS011;23930;57.632;18.292;2022-09-12T02:11:00;2.72;;;2.50;;
37843;SDS011;23930;57.632;18.292;2022-09-12T02:13:40;5.30;;;2.70;;
37843;SDS011;23930;57.632;18.292;2022-09-12T02:16:17;2.67;;;2.35;;
37843;SDS011;23930;57.632;18.292;2022-09-12T02:18:57;3.30;;;2.83;;
37843;SDS011;23930;57.632;18.292;2022-09-12T02:21:32;3.85;;;2.45;;
37843;SDS011;23930;57.632;18.292;2022-09-12T02:24:02;5.63;;;3.00;;
37843;SDS011;23930;57.632;18.292;2022-09-12T02:26:33;3.08;;;2.67;;
37843;SDS011;23930;57.632;18.292;2022-09-12T02:29:03;2.67;;;2.47;;
37843;SDS011;23930;57.632;18.292;2022-09-12T02:39:28;5.43;;;2.50;;
37843;SDS011;23930;57.632;18.292;2022-09-12T02:41:56;3.00;;;2.08;;
37843;SDS011;23930;57.632;18.292;2022-09-12T02:44:26;3.42;;;2.00;;
37843;SDS011;23930;57.632;18.292;2022-09-12T02:46:56;3.80;;;3.50;;
37843;SDS011;23930;57.632;18.292;2022-09-12T02:49:33;3.00;;;2.63;;
37843;SDS011;23930;57.632;18.292;2022-09-12T02:52:00;3.47;;;2.63;;
37843;SDS011;23930;57.632;18.292;2022-09-12T02:54:28;3.67;;;2.40;;
37843;SDS011;23930;57.632;18.292;2022-09-12T02:56:56;4.15;;;2.15;;
37843;SDS011;23930;57.632;18.292;2022-09-12T02:59:23;2.45;;;2.22;;
37843;SDS011;23930;57.632;18.292;2022-09-12T03:07:58;5.18;;;3.05;;
37843;SDS011;23930;57.632;18.292;2022-09-12T03:13:26;3.40;;;2.95;;
37843;SDS011;23930;57.632;18.292;2022-09-12T03:21:01;2.75;;;2.55;;
37843;SDS011;23930;57.632;18.292;2022-09-12T03:23:37;2.92;;;2.47;;
37843;SDS011;23930;57.632;18.292;2022-09-12T03:26:24;3.33;;;3.00;;
37843;SDS011;23930;57.632;18.292;2022-09-12T03:28:56;4.57;;;2.70;;
37843;SDS011;23930;57.632;18.292;2022-09-12T03:31:24;2.92;;;2.72;;
37843;SDS011;23930;57.632;18.292;2022-09-12T03:33:51;3.58;;;2.80;;
37843;SDS011;23930;57.632;18.292;2022-09-12T03:36:22;4.10;;;2.88;;
37843;SDS011;23930;57.632;18.292;2022-09-12T03:38:51;6.05;;;3.10;;
37843;SDS011;23930;57.632;18.292;2022-09-12T03:41:18;4.35;;;2.50;;
37843;SDS011;23930;57.632;18.292;2022-09-12T03:43:45;3.45;;;2.50;;
37843;SDS011;23930;57.632;18.292;2022-09-12T03:46:13;2.65;;;2.40;;
37843;SDS011;23930;57.632;18.292;2022-09-12T03:48:40;6.25;;;2.70;;
37843;SDS011;23930;57.632;18.292;2022-09-12T03:51:08;3.70;;;2.20;;
37843;SDS011;23930;57.632;18.292;2022-09-12T03:53:35;4.07;;;2.17;;
37843;SDS011;23930;57.632;18.292;2022-09-12T03:56:06;4.32;;;2.47;;
37843;SDS011;23930;57.632;18.292;2022-09-12T03:58:35;3.10;;;2.83;;
37843;SDS011;23930;57.632;18.292;2022-09-12T04:01:15;1.90;;;1.70;;
37843;SDS011;23930;57.632;18.292;2022-09-12T04:03:44;2.40;;;2.05;;
37843;SDS011;23930;57.632;18.292;2022-09-12T04:06:13;2.55;;;2.13;;
37843;SDS011;23930;57.632;18.292;2022-09-12T04:08:42;4.73;;;2.63;;
37843;SDS011;23930;57.632;18.292;2022-09-12T04:11:11;3.97;;;2.17;;
37843;SDS011;23930;57.632;18.292;2022-09-12T04:13:40;3.22;;;2.97;;
37843;SDS011;23930;57.632;18.292;2022-09-12T04:16:08;3.20;;;2.85;;
37843;SDS011;23930;57.632;18.292;2022-09-12T04:18:36;3.70;;;2.95;;
37843;SDS011;23930;57.632;18.292;2022-09-12T04:21:04;4.38;;;3.58;;
37843;SDS011;23930;57.632;18.292;2022-09-12T04:23:35;4.45;;;2.60;;
37843;SDS011;23930;57.632;18.292;2022-09-12T04:26:03;3.10;;;2.67;;
37843;SDS011;23930;57.632;18.292;2022-09-12T04:31:01;3.83;;;2.97;;
37843;SDS011;23930;57.632;18.292;2022-09-12T04:33:40;6.32;;;2.85;;
37843;SDS011;23930;57.632;18.292;2022-09-12T04:36:09;3.70;;;3.35;;
37843;SDS011;23930;57.632;18.292;2022-09-12T04:38:39;3.20;;;2.92;;
37843;SDS011;23930;57.632;18.292;2022-09-12T04:41:40;3.78;;;3.08;;
37843;SDS011;23930;57.632;18.292;2022-09-12T04:44:02;7.90;;;3.35;;
37843;SDS011;23930;57.632;18.292;2022-09-12T04:46:33;6.05;;;3.88;;
37843;SDS011;23930;57.632;18.292;2022-09-12T04:51:30;4.25;;;3.60;;
37843;SDS011;23930;57.632;18.292;2022-09-12T04:54:02;11.98;;;3.88;;
37843;SDS011;23930;57.632;18.292;2022-09-12T04:56:39;4.93;;;3.65;;
37843;SDS011;23930;57.632;18.292;2022-09-12T04:59:08;9.18;;;4.05;;
37843;SDS011;23930;57.632;18.292;2022-09-12T05:01:36;7.15;;;3.83;;
37843;SDS011;23930;57.632;18.292;2022-09-12T05:04:03;5.50;;;3.40;;
37843;SDS011;23930;57.632;18.292;2022-09-12T05:06:31;6.30;;;4.78;;
37843;SDS011;23930;57.632;18.292;2022-09-12T05:09:00;4.22;;;3.53;;
37843;SDS011;23930;57.632;18.292;2022-09-12T05:11:33;7.43;;;5.53;;
37843;SDS011;23930;57.632;18.292;2022-09-12T05:14:22;5.22;;;3.85;;
37843;SDS011;23930;57.632;18.292;2022-09-12T05:16:49;6.20;;;4.00;;
37843;SDS011;23930;57.632;18.292;2022-09-12T05:19:16;3.70;;;3.40;;
37843;SDS011;23930;57.632;18.292;2022-09-12T05:21:43;5.03;;;4.28;;
37843;SDS011;23930;57.632;18.292;2022-09-12T05:24:10;4.30;;;3.70;;
37843;SDS011;23930;57.632;18.292;2022-09-12T05:26:37;4.93;;;4.50;;
37843;SDS011;23930;57.632;18.292;2022-09-12T05:29:04;4.97;;;3.53;;
37843;SDS011;23930;57.632;18.292;2022-09-12T05:31:32;14.48;;;5.57;;
37843;SDS011;23930;57.632;18.292;2022-09-12T05:34:00;4.05;;;3.35;;
37843;SDS011;23930;57.632;18.292;2022-09-12T05:36:31;3.85;;;3.50;;
37843;SDS011;23930;57.632;18.292;2022-09-12T05:38:58;4.88;;;3.30;;
37843;SDS011;23930;57.632;18.292;2022-09-12T05:41:27;4.00;;;3.35;;
37843;SDS011;23930;57.632;18.292;2022-09-12T05:43:56;5.53;;;3.63;;
37843;SDS011;23930;57.632;18.292;2022-09-12T05:46:25;7.00;;;3.63;;
37843;SDS011;23930;57.632;18.292;2022-09-12T05:48:54;4.07;;;3.13;;
37843;SDS011;23930;57.632;18.292;2022-09-12T05:51:23;6.70;;;3.67;;
37843;SDS011;23930;57.632;18.292;2022-09-12T05:53:53;5.85;;;3.45;;
37843;SDS011;23930;57.632;18.292;2022-09-12T05:56:23;3.78;;;3.30;;
37843;SDS011;23930;57.632;18.292;2022-09-12T05:58:53;3.53;;;2.67;;
37843;SDS011;23930;57.632;18.292;2022-09-12T06:01:21;5.30;;;2.90;;
37843;SDS011;23930;57.632;18.292;2022-09-12T06:03:50;5.53;;;4.32;;
37843;SDS011;23930;57.632;18.292;2022-09-12T06:06:19;7.03;;;3.17;;
37843;SDS011;23930;57.632;18.292;2022-09-12T06:08:48;7.28;;;3.20;;
37843;SDS011;23930;57.632;18.292;2022-09-12T06:11:18;6.50;;;3.28;;
37843;SDS011;23930;57.632;18.292;2022-09-12T06:13:51;4.68;;;3.08;;
37843;SDS011;23930;57.632;18.292;2022-09-12T06:16:19;4.43;;;2.85;;
37843;SDS011;23930;57.632;18.292;2022-09-12T06:18:48;4.28;;;2.75;;
37843;SDS011;23930;57.632;18.292;2022-09-12T06:21:19;5.88;;;3.47;;
37843;SDS011;23930;57.632;18.292;2022-09-12T06:23:47;4.13;;;3.05;;
37843;SDS011;23930;57.632;18.292;2022-09-12T06:26:15;4.20;;;2.42;;
37843;SDS011;23930;57.632;18.292;2022-09-12T06:28:46;2.20;;;2.00;;
37843;SDS011;23930;57.632;18.292;2022-09-12T06:31:17;2.63;;;1.77;;
37843;SDS011;23930;57.632;18.292;2022-09-12T06:33:47;3.63;;;2.15;;
37843;SDS011;23930;57.632;18.292;2022-09-12T06:36:20;6.15;;;2.50;;
37843;SDS011;23930;57.632;18.292;2022-09-12T06:41:23;4.20;;;2.08;;
37843;SDS011;23930;57.632;18.292;2022-09-12T06:43:51;2.60;;;2.00;;
37843;SDS011;23930;57.632;18.292;2022-09-12T06:46:19;2.33;;;2.13;;
37843;SDS011;23930;57.632;18.292;2022-09-12T06:48:46;2.63;;;1.92;;
37843;SDS011;23930;57.632;18.292;2022-09-12T06:51:14;2.08;;;1.88;;
37843;SDS011;23930;57.632;18.292;2022-09-12T06:53:43;2.17;;;2.00;;
37843;SDS011;23930;57.632;18.292;2022-09-12T06:56:12;1.98;;;1.85;;
37843;SDS011;23930;57.632;18.292;2022-09-12T06:58:44;2.92;;;2.47;;
37843;SDS011;23930;57.632;18.292;2022-09-12T07:01:13;2.05;;;1.77;;
37843;SDS011;23930;57.632;18.292;2022-09-12T07:03:40;2.15;;;1.90;;
37843;SDS011;23930;57.632;18.292;2022-09-12T07:06:10;1.90;;;1.75;;
37843;SDS011;23930;57.632;18.292;2022-09-12T07:08:38;5.22;;;1.58;;
37843;SDS011;23930;57.632;18.292;2022-09-12T07:11:10;1.05;;;0.95;;
37843;SDS011;23930;57.632;18.292;2022-09-12T07:13:38;1.83;;;1.58;;
37843;SDS011;23930;57.632;18.292;2022-09-12T07:16:06;4.97;;;1.77;;
37843;SDS011;23930;57.632;18.292;2022-09-12T07:18:33;2.42;;;2.22;;
37843;SDS011;23930;57.632;18.292;2022-09-12T07:21:01;3.05;;;1.65;;
37843;SDS011;23930;57.632;18.292;2022-09-12T07:23:29;2.22;;;2.03;;
37843;SDS011;23930;57.632;18.292;2022-09-12T07:25:56;3.22;;;1.98;;
37843;SDS011;23930;57.632;18.292;2022-09-12T07:28:28;2.47;;;1.60;;
37843;SDS011;23930;57.632;18.292;2022-09-12T07:30:57;3.25;;;2.25;;
37843;SDS011;23930;57.632;18.292;2022-09-12T07:33:30;1.92;;;1.48;;
37843;SDS011;23930;57.632;18.292;2022-09-12T07:36:01;7.80;;;1.75;;
37843;SDS011;23930;57.632;18.292;2022-09-12T07:38:29;2.35;;;1.55;;
37843;SDS011;23930;57.632;18.292;2022-09-12T07:40:56;1.80;;;1.23;;
37843;SDS011;23930;57.632;18.292;2022-09-12T07:43:24;2.33;;;1.60;;
37843;SDS011;23930;57.632;18.292;2022-09-12T07:45:56;2.28;;;1.50;;
37843;SDS011;23930;57.632;18.292;2022-09-12T07:48:23;3.67;;;1.98;;
37843;SDS011;23930;57.632;18.292;2022-09-12T07:50:59;2.33;;;2.13;;
37843;SDS011;23930;57.632;18.292;2022-09-12T07:53:31;1.75;;;1.65;;
37843;SDS011;23930;57.632;18.292;2022-09-12T07:56:03;3.80;;;1.60;;
37843;SDS011;23930;57.632;18.292;2022-09-12T07:58:32;2.08;;;1.73;;
37843;SDS011;23930;57.632;18.292;2022-09-12T08:01:05;1.83;;;1.63;;
37843;SDS011;23930;57.632;18.292;2022-09-12T08:03:54;2.90;;;1.83;;
37843;SDS011;23930;57.632;18.292;2022-09-12T08:06:23;2.05;;;1.08;;
37843;SDS011;23930;57.632;18.292;2022-09-12T08:08:51;1.48;;;1.38;;
37843;SDS011;23930;57.632;18.292;2022-09-12T08:11:20;1.90;;;1.70;;
37843;SDS011;23930;57.632;18.292;2022-09-12T08:13:48;1.77;;;1.55;;
37843;SDS011;23930;57.632;18.292;2022-09-12T08:16:21;2.78;;;1.52;;
37843;SDS011;23930;57.632;18.292;2022-09-12T08:18:49;4.68;;;1.70;;
37843;SDS011;23930;57.632;18.292;2022-09-12T08:21:18;3.58;;;2.50;;
37843;SDS011;23930;57.632;18.292;2022-09-12T08:23:56;1.70;;;1.60;;
37843;SDS011;23930;57.632;18.292;2022-09-12T08:26:29;2.20;;;1.65;;
37843;SDS011;23930;57.632;18.292;2022-09-12T08:28:58;2.97;;;1.73;;
37843;SDS011;23930;57.632;18.292;2022-09-12T08:31:25;2.72;;;2.45;;
37843;SDS011;23930;57.632;18.292;2022-09-12T08:33:56;2.08;;;1.33;;
37843;SDS011;23930;57.632;18.292;2022-09-12T08:36:24;1.38;;;1.27;;
37843;SDS011;23930;57.632;18.292;2022-09-12T08:38:56;2.78;;;1.50;;
37843;SDS011;23930;57.632;18.292;2022-09-12T08:49:03;3.65;;;1.65;;
37843;SDS011;23930;57.632;18.292;2022-09-12T08:51:36;1.42;;;1.00;;
37843;SDS011;23930;57.632;18.292;2022-09-12T08:54:03;2.85;;;1.58;;
37843;SDS011;23930;57.632;18.292;2022-09-12T08:56:37;2.17;;;1.63;;
37843;SDS011;23930;57.632;18.292;2022-09-12T08:59:04;1.13;;;1.02;;
37843;SDS011;23930;57.632;18.292;2022-09-12T09:01:38;2.35;;;1.27;;
37843;SDS011;23930;57.632;18.292;2022-09-12T09:12:51;1.65;;;1.55;;
37843;SDS011;23930;57.632;18.292;2022-09-12T09:16:08;1.92;;;1.48;;
37843;SDS011;23930;57.632;18.292;2022-09-12T09:18:42;1.48;;;1.20;;
37843;SDS011;23930;57.632;18.292;2022-09-12T09:26:25;4.13;;;1.88;;
37843;SDS011;23930;57.632;18.292;2022-09-12T09:29:13;2.47;;;1.20;;
37843;SDS011;23930;57.632;18.292;2022-09-12T09:31:48;1.67;;;1.35;;
37843;SDS011;23930;57.632;18.292;2022-09-12T09:34:19;1.98;;;1.25;;
37843;SDS011;23930;57.632;18.292;2022-09-12T09:44:44;3.22;;;1.58;;
37843;SDS011;23930;57.632;18.292;2022-09-12T09:47:13;1.35;;;1.25;;
37843;SDS011;23930;57.632;18.292;2022-09-12T09:49:40;3.30;;;1.00;;
37843;SDS011;23930;57.632;18.292;2022-09-12T09:52:07;1.75;;;1.65;;
37843;SDS011;23930;57.632;18.292;2022-09-12T09:54:41;1.15;;;1.05;;
37843;SDS011;23930;57.632;18.292;2022-09-12T10:05:24;2.85;;;1.27;;
37843;SDS011;23930;57.632;18.292;2022-09-12T10:07:51;2.83;;;1.20;;
37843;SDS011;23930;57.632;18.292;2022-09-12T10:10:18;4.78;;;2.05;;
37843;SDS011;23930;57.632;18.292;2022-09-12T10:12:48;1.60;;;1.23;;
37843;SDS011;23930;57.632;18.292;2022-09-12T10:17:46;3.08;;;1.40;;
37843;SDS011;23930;57.632;18.292;2022-09-12T10:25:56;2.17;;;1.25;;
37843;SDS011;23930;57.632;18.292;2022-09-12T10:30:58;1.55;;;1.42;;
37843;SDS011;23930;57.632;18.292;2022-09-12T10:33:28;1.83;;;1.73;;
37843;SDS011;23930;57.632;18.292;2022-09-12T10:35:55;1.30;;;1.20;;
37843;SDS011;23930;57.632;18.292;2022-09-12T10:38:31;3.10;;;1.50;;
37843;SDS011;23930;57.632;18.292;2022-09-12T10:41:00;1.50;;;1.40;;
37843;SDS011;23930;57.632;18.292;2022-09-12T10:43:34;2.28;;;1.40;;
37843;SDS011;23930;57.632;18.292;2022-09-12T10:48:41;2.03;;;1.83;;
37843;SDS011;23930;57.632;18.292;2022-09-12T10:51:28;2.58;;;1.40;;
37843;SDS011;23930;57.632;18.292;2022-09-12T10:54:00;1.77;;;1.13;;
37843;SDS011;23930;57.632;18.292;2022-09-12T10:56:32;2.17;;;1.92;;
37843;SDS011;23930;57.632;18.292;2022-09-12T10:59:08;3.47;;;1.73;;
37843;SDS011;23930;57.632;18.292;2022-09-12T11:01:59;1.33;;;1.23;;
37843;SDS011;23930;57.632;18.292;2022-09-12T11:13:16;4.00;;;1.17;;
37843;SDS011;23930;57.632;18.292;2022-09-12T11:15:54;1.70;;;1.40;;
37843;SDS011;23930;57.632;18.292;2022-09-12T11:18:56;1.95;;;1.58;;
37843;SDS011;23930;57.632;18.292;2022-09-12T11:30:18;3.20;;;1.40;;
37843;SDS011;23930;57.632;18.292;2022-09-12T11:35:31;2.55;;;1.30;;
37843;SDS011;23930;57.632;18.292;2022-09-12T11:40:58;1.33;;;1.20;;
37843;SDS011;23930;57.632;18.292;2022-09-12T11:43:49;3.10;;;1.55;;
37843;SDS011;23930;57.632;18.292;2022-09-12T11:46:34;1.45;;;1.17;;
37843;SDS011;23930;57.632;18.292;2022-09-12T11:51:36;3.58;;;1.60;;
37843;SDS011;23930;57.632;18.292;2022-09-12T11:57:24;1.98;;;1.35;;
37843;SDS011;23930;57.632;18.292;2022-09-12T12:00:14;1.55;;;1.42;;
37843;SDS011;23930;57.632;18.292;2022-09-12T12:08:06;1.40;;;1.30;;
37843;SDS011;23930;57.632;18.292;2022-09-12T12:10:36;2.45;;;1.60;;
37843;SDS011;23930;57.632;18.292;2022-09-12T12:13:14;2.80;;;1.55;;
37843;SDS011;23930;57.632;18.292;2022-09-12T12:15:46;1.40;;;1.30;;
37843;SDS011;23930;57.632;18.292;2022-09-12T12:18:17;1.60;;;1.35;;
37843;SDS011;23930;57.632;18.292;2022-09-12T12:20:48;4.43;;;1.40;;
37843;SDS011;23930;57.632;18.292;2022-09-12T12:25:58;2.25;;;1.55;;
37843;SDS011;23930;57.632;18.292;2022-09-12T12:31:09;2.13;;;1.95;;
37843;SDS011;23930;57.632;18.292;2022-09-12T12:36:10;4.65;;;1.73;;
37843;SDS011;23930;57.632;18.292;2022-09-12T12:41:49;1.20;;;1.10;;
37843;SDS011;23930;57.632;18.292;2022-09-12T12:47:20;2.58;;;1.52;;
37843;SDS011;23930;57.632;18.292;2022-09-12T12:49:57;3.17;;;1.55;;
37843;SDS011;23930;57.632;18.292;2022-09-12T12:55:19;6.10;;;1.90;;
37843;SDS011;23930;57.632;18.292;2022-09-12T12:57:49;2.50;;;1.92;;
37843;SDS011;23930;57.632;18.292;2022-09-12T13:05:47;3.65;;;1.60;;
37843;SDS011;23930;57.632;18.292;2022-09-12T13:10:47;1.65;;;1.50;;
37843;SDS011;23930;57.632;18.292;2022-09-12T13:14:02;3.22;;;1.95;;
37843;SDS011;23930;57.632;18.292;2022-09-12T13:16:30;1.60;;;1.30;;
37843;SDS011;23930;57.632;18.292;2022-09-12T13:19:02;2.42;;;1.65;;
37843;SDS011;23930;57.632;18.292;2022-09-12T13:21:56;1.40;;;1.30;;
37843;SDS011;23930;57.632;18.292;2022-09-12T13:24:26;2.33;;;1.80;;
37843;SDS011;23930;57.632;18.292;2022-09-12T13:26:54;1.50;;;1.40;;
37843;SDS011;23930;57.632;18.292;2022-09-12T13:29:23;2.05;;;1.33;;
37843;SDS011;23930;57.632;18.292;2022-09-12T13:32:01;2.63;;;1.50;;
37843;SDS011;23930;57.632;18.292;2022-09-12T13:34:48;1.27;;;1.13;;
37843;SDS011;23930;57.632;18.292;2022-09-12T13:40:21;1.42;;;1.15;;
37843;SDS011;23930;57.632;18.292;2022-09-12T13:43:35;1.38;;;1.27;;
37843;SDS011;23930;57.632;18.292;2022-09-12T13:46:06;1.67;;;1.42;;
37843;SDS011;23930;57.632;18.292;2022-09-12T13:48:35;2.30;;;1.70;;
37843;SDS011;23930;57.632;18.292;2022-09-12T13:51:02;3.17;;;1.45;;
37843;SDS011;23930;57.632;18.292;2022-09-12T13:53:31;2.53;;;1.50;;
37843;SDS011;23930;57.632;18.292;2022-09-12T13:56:07;1.77;;;1.67;;
37843;SDS011;23930;57.632;18.292;2022-09-12T13:58:49;5.53;;;3.13;;
37843;SDS011;23930;57.632;18.292;2022-09-12T14:01:24;3.67;;;1.58;;
37843;SDS011;23930;57.632;18.292;2022-09-12T14:04:15;2.60;;;1.50;;
37843;SDS011;23930;57.632;18.292;2022-09-12T14:07:12;2.58;;;1.52;;
37843;SDS011;23930;57.632;18.292;2022-09-12T14:09:51;3.33;;;2.60;;
37843;SDS011;23930;57.632;18.292;2022-09-12T14:14:54;1.23;;;1.13;;
37843;SDS011;23930;57.632;18.292;2022-09-12T14:19:49;1.65;;;1.55;;
37843;SDS011;23930;57.632;18.292;2022-09-12T14:22:18;3.15;;;2.15;;
37843;SDS011;23930;57.632;18.292;2022-09-12T14:24:45;3.08;;;2.05;;
37843;SDS011;23930;57.632;18.292;2022-09-12T14:27:21;1.95;;;1.48;;
37843;SDS011;23930;57.632;18.292;2022-09-12T14:29:52;1.95;;;1.35;;
37843;SDS011;23930;57.632;18.292;2022-09-12T14:32:35;2.42;;;1.58;;
37843;SDS011;23930;57.632;18.292;2022-09-12T14:37:37;2.88;;;1.70;;
37843;SDS011;23930;57.632;18.292;2022-09-12T14:40:38;3.95;;;1.70;;
37843;SDS011;23930;57.632;18.292;2022-09-12T14:43:05;2.45;;;1.20;;
37843;SDS011;23930;57.632;18.292;2022-09-12T14:48:26;4.95;;;1.45;;
37843;SDS011;23930;57.632;18.292;2022-09-12T14:50:57;2.75;;;2.08;;
37843;SDS011;23930;57.632;18.292;2022-09-12T14:53:31;2.38;;;1.55;;
37843;SDS011;23930;57.632;18.292;2022-09-12T14:56:10;4.30;;;1.50;;
37843;SDS011;23930;57.632;18.292;2022-09-12T14:58:38;5.28;;;2.13;;
37843;SDS011;23930;57.632;18.292;2022-09-12T15:03:34;1.92;;;1.60;;
37843;SDS011;23930;57.632;18.292;2022-09-12T15:06:23;3.40;;;2.40;;
37843;SDS011;23930;57.632;18.292;2022-09-12T15:08:54;1.90;;;1.45;;
37843;SDS011;23930;57.632;18.292;2022-09-12T15:11:22;2.33;;;1.92;;
37843;SDS011;23930;57.632;18.292;2022-09-12T15:13:49;5.15;;;2.22;;
37843;SDS011;23930;57.632;18.292;2022-09-12T15:16:16;10.80;;;1.58;;
37843;SDS011;23930;57.632;18.292;2022-09-12T15:18:43;4.00;;;1.33;;
37843;SDS011;23930;57.632;18.292;2022-09-12T15:21:11;2.05;;;1.85;;
37843;SDS011;23930;57.632;18.292;2022-09-12T15:26:18;2.38;;;2.08;;
37843;SDS011;23930;57.632;18.292;2022-09-12T15:28:48;2.25;;;2.05;;
37843;SDS011;23930;57.632;18.292;2022-09-12T15:33:53;4.72;;;1.40;;
37843;SDS011;23930;57.632;18.292;2022-09-12T15:36:21;1.92;;;1.73;;
37843;SDS011;23930;57.632;18.292;2022-09-12T15:38:49;1.98;;;1.30;;
37843;SDS011;23930;57.632;18.292;2022-09-12T15:43:48;1.40;;;1.30;;
37843;SDS011;23930;57.632;18.292;2022-09-12T15:46:16;3.47;;;1.90;;
37843;SDS011;23930;57.632;18.292;2022-09-12T15:48:43;2.38;;;1.80;;
37843;SDS011;23930;57.632;18.292;2022-09-12T15:51:14;3.05;;;1.25;;
37843;SDS011;23930;57.632;18.292;2022-09-12T15:53:43;1.83;;;1.38;;
37843;SDS011;23930;57.632;18.292;2022-09-12T15:56:11;1.90;;;1.58;;
37843;SDS011;23930;57.632;18.292;2022-09-12T15:58:39;1.77;;;1.35;;
37843;SDS011;23930;57.632;18.292;2022-09-12T16:01:23;2.25;;;1.67;;
37843;SDS011;23930;57.632;18.292;2022-09-12T16:03:51;2.08;;;1.58;;
37843;SDS011;23930;57.632;18.292;2022-09-12T16:06:18;1.77;;;1.58;;
37843;SDS011;23930;57.632;18.292;2022-09-12T16:08:45;1.40;;;1.30;;
37843;SDS011;23930;57.632;18.292;2022-09-12T16:11:17;3.95;;;2.55;;
37843;SDS011;23930;57.632;18.292;2022-09-12T16:13:46;1.45;;;1.35;;
37843;SDS011;23930;57.632;18.292;2022-09-12T16:16:14;1.83;;;1.55;;
37843;SDS011;23930;57.632;18.292;2022-09-12T16:18:41;2.40;;;1.85;;
37843;SDS011;23930;57.632;18.292;2022-09-12T16:21:08;2.42;;;1.83;;
37843;SDS011;23930;57.632;18.292;2022-09-12T16:23:43;6.45;;;1.67;;
37843;SDS011;23930;57.632;18.292;2022-09-12T16:26:11;8.38;;;2.10;;
37843;SDS011;23930;57.632;18.292;2022-09-12T16:28:38;1.95;;;1.70;;
37843;SDS011;23930;57.632;18.292;2022-09-12T16:31:06;1.73;;;1.58;;
37843;SDS011;23930;57.632;18.292;2022-09-12T16:33:35;2.70;;;1.58;;
37843;SDS011;23930;57.632;18.292;2022-09-12T16:36:11;1.67;;;1.30;;
37843;SDS011;23930;57.632;18.292;2022-09-12T16:38:40;2.13;;;1.92;;
37843;SDS011;23930;57.632;18.292;2022-09-12T16:41:08;2.28;;;2.08;;
37843;SDS011;23930;57.632;18.292;2022-09-12T16:43:35;5.07;;;2.45;;
37843;SDS011;23930;57.632;18.292;2022-09-12T16:46:06;2.03;;;1.70;;
37843;SDS011;23930;57.632;18.292;2022-09-12T16:48:35;3.50;;;2.50;;
37843;SDS011;23930;57.632;18.292;2022-09-12T16:51:03;2.88;;;2.53;;
37843;SDS011;23930;57.632;18.292;2022-09-12T16:53:33;3.13;;;1.77;;
37843;SDS011;23930;57.632;18.292;2022-09-12T16:56:02;2.42;;;2.10;;
37843;SDS011;23930;57.632;18.292;2022-09-12T16:58:31;3.47;;;2.65;;
37843;SDS011;23930;57.632;18.292;2022-09-12T17:01:04;3.85;;;2.03;;
37843;SDS011;23930;57.632;18.292;2022-09-12T17:03:33;2.08;;;1.60;;
37843;SDS011;23930;57.632;18.292;2022-09-12T17:06:05;4.60;;;1.52;;
37843;SDS011;23930;57.632;18.292;2022-09-12T17:08:33;2.45;;;2.03;;
37843;SDS011;23930;57.632;18.292;2022-09-12T17:11:04;2.70;;;2.20;;
37843;SDS011;23930;57.632;18.292;2022-09-12T17:13:35;3.85;;;2.03;;
37843;SDS011;23930;57.632;18.292;2022-09-12T17:16:22;3.97;;;2.28;;
37843;SDS011;23930;57.632;18.292;2022-09-12T17:18:50;6.63;;;2.58;;
37843;SDS011;23930;57.632;18.292;2022-09-12T17:21:19;3.00;;;2.13;;
37843;SDS011;23930;57.632;18.292;2022-09-12T17:23:46;3.60;;;1.95;;
37843;SDS011;23930;57.632;18.292;2022-09-12T17:26:14;3.60;;;2.58;;
37843;SDS011;23930;57.632;18.292;2022-09-12T17:28:41;4.20;;;2.35;;
37843;SDS011;23930;57.632;18.292;2022-09-12T17:31:10;5.15;;;2.67;;
37843;SDS011;23930;57.632;18.292;2022-09-12T17:33:38;4.72;;;2.90;;
37843;SDS011;23930;57.632;18.292;2022-09-12T17:36:07;3.83;;;2.70;;
37843;SDS011;23930;57.632;18.292;2022-09-12T17:41:24;4.28;;;2.97;;
37843;SDS011;23930;57.632;18.292;2022-09-12T17:43:54;5.05;;;3.70;;
37843;SDS011;23930;57.632;18.292;2022-09-12T17:46:23;2.45;;;2.35;;
37843;SDS011;23930;57.632;18.292;2022-09-12T17:49:03;4.28;;;3.00;;
37843;SDS011;23930;57.632;18.292;2022-09-12T17:51:33;3.03;;;1.98;;
37843;SDS011;23930;57.632;18.292;2022-09-12T17:54:02;2.50;;;2.25;;
37843;SDS011;23930;57.632;18.292;2022-09-12T17:56:32;3.95;;;2.83;;
37843;SDS011;23930;57.632;18.292;2022-09-12T17:59:00;2.83;;;2.63;;
37843;SDS011;23930;57.632;18.292;2022-09-12T18:01:27;2.47;;;2.20;;
37843;SDS011;23930;57.632;18.292;2022-09-12T18:04:13;2.55;;;2.35;;
37843;SDS011;23930;57.632;18.292;2022-09-12T18:06:40;4.13;;;2.35;;
37843;SDS011;23930;57.632;18.292;2022-09-12T18:09:14;3.05;;;2.13;;
37843;SDS011;23930;57.632;18.292;2022-09-12T18:11:43;5.05;;;2.25;;
37843;SDS011;23930;57.632;18.292;2022-09-12T18:14:10;4.80;;;1.88;;
37843;SDS011;23930;57.632;18.292;2022-09-12T18:16:39;3.15;;;2.33;;